| time (UTC) | temp C | wind direction | speed KPH | gust KPH | rain 1hr cm | rain 24hr cm | rain mn cm | humidity % | barometer mb |
| 20260507063735 | 15 | 210 | 12.9 | 0.0 | 0.00 | 0.00 | 0.00 | 81 | 1015.0 |
| 20260507061734 | 15 | 210 | 12.9 | 0.0 | 0.00 | 0.00 | 0.00 | 81 | 1016.0 |
| 20260507055733 | 15 | 210 | 12.9 | 0.0 | 0.00 | 0.00 | 0.00 | 80 | 1015.0 |
| 20260507053732 | 15 | 210 | 12.9 | 0.0 | 0.00 | 0.00 | 0.00 | 80 | 1016.0 |
| 20260507051731 | 15 | 210 | 12.9 | 0.0 | 0.00 | 0.00 | 0.00 | 80 | 1017.0 |
| 20260507045730 | 15 | 210 | 12.9 | 0.0 | 0.00 | 0.00 | 0.00 | 80 | 1016.0 |
| 20260507043729 | 15 | 210 | 12.9 | 0.0 | 0.00 | 0.00 | 0.00 | 80 | 1016.0 |
| 20260507041728 | 15 | 210 | 12.9 | 0.0 | 0.00 | 0.00 | 0.00 | 80 | 1017.0 |
| 20260507035727 | 16 | 210 | 12.9 | 0.0 | 0.00 | 0.00 | 0.00 | 80 | 1016.0 |
| 20260507033726 | 16 | 210 | 12.9 | 0.0 | 0.00 | 0.00 | 0.00 | 80 | 1016.0 |
| 20260507031726 | 16 | 210 | 12.9 | 0.0 | 0.00 | 0.00 | 0.00 | 80 | 1016.0 |
| 20260507025725 | 16 | 210 | 12.9 | 0.0 | 0.00 | 0.00 | 0.00 | 80 | 1015.0 |
| 20260507023724 | 16 | 210 | 12.9 | 0.0 | 0.00 | 0.00 | 0.00 | 80 | 1015.0 |
| 20260507021723 | 16 | 210 | 12.9 | 0.0 | 0.00 | 0.00 | 0.00 | 80 | 1015.0 |
| 20260507015721 | 17 | 210 | 12.9 | 0.0 | 0.00 | 0.00 | 0.00 | 80 | 1014.0 |
| 20260507013721 | 17 | 210 | 12.9 | 0.0 | 0.00 | 0.00 | 0.00 | 80 | 1014.0 |
| 20260507011720 | 17 | 210 | 12.9 | 0.0 | 0.00 | 0.00 | 0.00 | 80 | 1014.0 |
| 20260507005719 | 17 | 210 | 12.9 | 0.0 | 0.00 | 0.00 | 0.00 | 80 | 1013.0 |
| 20260507003718 | 17 | 210 | 12.9 | 0.0 | 0.00 | 0.00 | 0.00 | 80 | 1013.0 |
| 20260507001717 | 18 | 210 | 12.9 | 0.0 | 0.00 | 0.00 | 0.00 | 80 | 1013.0 |
| 20260506235716 | 20 | 210 | 12.9 | 0.0 | 0.00 | 0.00 | 0.00 | 80 | 1013.0 |
| 20260506233715 | 21 | 210 | 12.9 | 0.0 | 0.00 | 0.00 | 0.00 | 80 | 1012.0 |
| 20260506231714 | 21 | 210 | 12.9 | 0.0 | 0.00 | 0.00 | 0.00 | 80 | 1011.0 |
| 20260506225713 | 22 | 210 | 12.9 | 0.0 | 0.00 | 0.00 | 0.00 | 80 | 1010.0 |
| 20260506223712 | 22 | 210 | 12.9 | 0.0 | 0.00 | 0.00 | 0.00 | 80 | 1010.0 |
| 20260506221711 | 22 | 210 | 12.9 | 0.0 | 0.00 | 0.00 | 0.00 | 80 | 1010.0 |
| 20260506215710 | 22 | 210 | 12.9 | 0.0 | 0.00 | 0.00 | 0.00 | 80 | 1009.0 |
| 20260506213709 | 22 | 210 | 12.9 | 0.0 | 0.00 | 0.00 | 0.00 | 79 | 1009.0 |
| 20260506211708 | 22 | 210 | 12.9 | 0.0 | 0.00 | 0.00 | 0.00 | 79 | 1010.0 |
| 20260506205707 | 23 | 210 | 12.9 | 0.0 | 0.00 | 0.00 | 0.00 | 79 | 1009.0 |
| 20260506203706 | 23 | 210 | 12.9 | 0.0 | 0.00 | 0.00 | 0.00 | 77 | 1009.0 |
| 20260506201705 | 23 | 210 | 12.9 | 0.0 | 0.00 | 0.00 | 0.00 | 77 | 1010.0 |
| 20260506195704 | 23 | 210 | 12.9 | 0.0 | 0.00 | 0.00 | 0.00 | 78 | 1009.0 |
| 20260506193703 | 23 | 0 | 8.0 | 0.0 | 0.00 | 0.00 | 0.00 | 79 | 1009.0 |
| 20260506191702 | 23 | 0 | 8.0 | 0.0 | 0.00 | 0.00 | 0.00 | 79 | 1010.0 |
| 20260506185701 | 23 | 0 | 6.4 | 0.0 | 0.00 | 0.00 | 0.00 | 80 | 1009.0 |
| 20260506183700 | 23 | 210 | 12.9 | 0.0 | 0.00 | 0.00 | 0.00 | 81 | 1010.0 |
| 20260506181700 | 23 | 210 | 12.9 | 0.0 | 0.00 | 0.00 | 0.00 | 81 | 1012.0 |
| 20260506175659 | 23 | 210 | 12.9 | 0.0 | 0.00 | 0.00 | 0.00 | 82 | 1011.0 |
| 20260506173658 | 23 | 210 | 12.9 | 0.0 | 0.00 | 0.00 | 0.00 | 82 | 1011.0 |
| 20260506171657 | 23 | 210 | 12.9 | 0.0 | 0.00 | 0.00 | 0.00 | 83 | 1013.0 |
| 20260506165656 | 23 | 200 | 6.4 | 0.0 | 0.00 | 0.00 | 0.00 | 83 | 1012.0 |
| 20260506163655 | 23 | 200 | 6.4 | 0.0 | 0.00 | 0.00 | 0.00 | 83 | 1012.0 |
| 20260506161654 | 23 | 200 | 6.4 | 0.0 | 0.00 | 0.00 | 0.00 | 83 | 1014.0 |
| 20260506155653 | 22 | 0 | 3.2 | 0.0 | 0.00 | 0.00 | 0.00 | 88 | 1013.0 |
| 20260506153652 | 22 | 0 | 3.2 | 0.0 | 0.00 | 0.00 | 0.00 | 88 | 1014.0 |
| 20260506151651 | 21 | 0 | 3.2 | 0.0 | 0.00 | 0.00 | 0.00 | 93 | 1016.0 |
| 20260506145650 | 21 | 0 | 3.2 | 0.0 | 0.00 | 0.00 | 0.00 | 94 | 1015.0 |
| 20260506143649 | 21 | 0 | 3.2 | 0.0 | 0.00 | 0.00 | 0.00 | 94 | 1015.0 |
| 20260506141648 | 21 | 0 | 3.2 | 0.0 | 0.00 | 0.00 | 0.00 | 94 | 1017.0 |
| 20260506135647 | 18 | 0 | 1.6 | 0.0 | 0.00 | 0.00 | 0.00 | 94 | 1016.0 |
| 20260506133646 | 18 | 0 | 1.6 | 0.0 | 0.00 | 0.00 | 0.00 | 94 | 1016.0 |
| 20260506131645 | 17 | 160 | 6.4 | 0.0 | 0.00 | 0.00 | 0.00 | 92 | 1017.0 |
| 20260506125644 | 16 | 160 | 6.4 | 0.0 | 0.00 | 0.00 | 0.00 | 91 | 1016.0 |
| 20260506123643 | 17 | 160 | 6.4 | 0.0 | 0.00 | 0.00 | 0.00 | 91 | 1016.0 |
| 20260506121643 | 17 | 160 | 6.4 | 0.0 | 0.00 | 0.00 | 0.00 | 91 | 1016.0 |
| 20260506115642 | 17 | 160 | 6.4 | 0.0 | 0.00 | 0.00 | 0.00 | 91 | 1016.0 |
| 20260506113641 | 17 | 160 | 6.4 | 0.0 | 0.00 | 0.00 | 0.00 | 91 | 1016.0 |
| 20260506111640 | 17 | 160 | 6.4 | 0.0 | 0.00 | 0.00 | 0.00 | 91 | 1016.0 |
| 20260506105639 | 17 | 160 | 6.4 | 0.0 | 0.00 | 0.00 | 0.00 | 91 | 1015.0 |
| 20260506103638 | 17 | 160 | 6.4 | 0.0 | 0.00 | 0.00 | 0.00 | 91 | 1015.0 |
| 20260506101637 | 17 | 160 | 6.4 | 0.0 | 0.00 | 0.00 | 0.00 | 91 | 1016.0 |
| 20260506095636 | 17 | 160 | 6.4 | 0.0 | 0.00 | 0.00 | 0.00 | 91 | 1015.0 |
| 20260506093635 | 17 | 160 | 6.4 | 0.0 | 0.00 | 0.00 | 0.00 | 91 | 1015.0 |
| 20260506091634 | 17 | 160 | 6.4 | 0.0 | 0.00 | 0.00 | 0.00 | 91 | 1016.0 |
| 20260506085633 | 17 | 160 | 6.4 | 0.0 | 0.00 | 0.00 | 0.00 | 91 | 1015.0 |
| 20260506083632 | 17 | 160 | 6.4 | 0.0 | 0.00 | 0.00 | 0.00 | 91 | 1015.0 |
| 20260506081631 | 17 | 160 | 6.4 | 0.0 | 0.00 | 0.00 | 0.00 | 91 | 1015.0 |
| 20260506071628 | 17 | 160 | 6.4 | 0.0 | 0.00 | 0.00 | 0.00 | 91 | 1016.0 |